sensor_id;sensor_type;location;lat;lon;timestamp;P1;durP1;ratioP1;P2;durP2;ratioP2
59074;SDS011;44860;53.020;6.738;2023-03-14T00:01:46;24.77;;;4.38;;
59074;SDS011;44860;53.020;6.738;2023-03-14T00:04:13;23.55;;;4.93;;
59074;SDS011;44860;53.020;6.738;2023-03-14T00:06:39;20.02;;;4.88;;
59074;SDS011;44860;53.020;6.738;2023-03-14T00:09:05;27.85;;;4.82;;
59074;SDS011;44860;53.020;6.738;2023-03-14T00:11:31;22.65;;;4.63;;
59074;SDS011;44860;53.020;6.738;2023-03-14T00:13:57;22.00;;;5.60;;
59074;SDS011;44860;53.020;6.738;2023-03-14T00:16:23;25.17;;;5.70;;
59074;SDS011;44860;53.020;6.738;2023-03-14T00:18:48;25.10;;;4.53;;
59074;SDS011;44860;53.020;6.738;2023-03-14T00:21:14;24.45;;;5.13;;
59074;SDS011;44860;53.020;6.738;2023-03-14T00:23:40;26.52;;;5.07;;
59074;SDS011;44860;53.020;6.738;2023-03-14T00:26:11;24.65;;;4.30;;
59074;SDS011;44860;53.020;6.738;2023-03-14T00:28:39;27.23;;;5.53;;
59074;SDS011;44860;53.020;6.738;2023-03-14T00:31:06;28.90;;;5.25;;
59074;SDS011;44860;53.020;6.738;2023-03-14T00:33:33;19.75;;;4.57;;
59074;SDS011;44860;53.020;6.738;2023-03-14T00:36:00;19.60;;;4.72;;
59074;SDS011;44860;53.020;6.738;2023-03-14T00:38:31;23.65;;;4.43;;
59074;SDS011;44860;53.020;6.738;2023-03-14T00:40:57;24.52;;;4.78;;
59074;SDS011;44860;53.020;6.738;2023-03-14T00:43:23;24.08;;;5.43;;
59074;SDS011;44860;53.020;6.738;2023-03-14T00:45:49;20.98;;;4.40;;
59074;SDS011;44860;53.020;6.738;2023-03-14T00:48:16;24.80;;;5.22;;
59074;SDS011;44860;53.020;6.738;2023-03-14T00:50:42;23.08;;;4.95;;
59074;SDS011;44860;53.020;6.738;2023-03-14T00:53:08;26.13;;;4.90;;
59074;SDS011;44860;53.020;6.738;2023-03-14T00:55:37;26.08;;;5.22;;
59074;SDS011;44860;53.020;6.738;2023-03-14T00:58:04;24.33;;;5.93;;
59074;SDS011;44860;53.020;6.738;2023-03-14T01:00:29;22.77;;;4.80;;
59074;SDS011;44860;53.020;6.738;2023-03-14T01:02:55;22.85;;;4.57;;
59074;SDS011;44860;53.020;6.738;2023-03-14T01:05:21;19.58;;;4.65;;
59074;SDS011;44860;53.020;6.738;2023-03-14T01:07:47;22.60;;;5.70;;
59074;SDS011;44860;53.020;6.738;2023-03-14T01:10:13;21.23;;;5.00;;
59074;SDS011;44860;53.020;6.738;2023-03-14T01:12:39;21.30;;;4.38;;
59074;SDS011;44860;53.020;6.738;2023-03-14T01:15:05;23.58;;;5.38;;
59074;SDS011;44860;53.020;6.738;2023-03-14T01:17:31;22.10;;;5.22;;
59074;SDS011;44860;53.020;6.738;2023-03-14T01:19:57;22.15;;;4.88;;
59074;SDS011;44860;53.020;6.738;2023-03-14T01:22:22;23.67;;;5.15;;
59074;SDS011;44860;53.020;6.738;2023-03-14T01:24:48;24.85;;;6.07;;
59074;SDS011;44860;53.020;6.738;2023-03-14T01:27:13;21.50;;;5.00;;
59074;SDS011;44860;53.020;6.738;2023-03-14T01:29:39;19.58;;;5.35;;
59074;SDS011;44860;53.020;6.738;2023-03-14T01:32:05;29.77;;;6.20;;
59074;SDS011;44860;53.020;6.738;2023-03-14T01:34:30;23.08;;;5.40;;
59074;SDS011;44860;53.020;6.738;2023-03-14T01:36:56;23.27;;;5.50;;
59074;SDS011;44860;53.020;6.738;2023-03-14T01:39:22;20.42;;;5.28;;
59074;SDS011;44860;53.020;6.738;2023-03-14T01:41:47;22.95;;;5.75;;
59074;SDS011;44860;53.020;6.738;2023-03-14T01:44:13;20.40;;;5.68;;
59074;SDS011;44860;53.020;6.738;2023-03-14T01:46:42;27.08;;;6.47;;
59074;SDS011;44860;53.020;6.738;2023-03-14T01:52:01;22.30;;;5.35;;
59074;SDS011;44860;53.020;6.738;2023-03-14T01:59:35;21.30;;;5.18;;
59074;SDS011;44860;53.020;6.738;2023-03-14T02:02:03;17.77;;;4.07;;
59074;SDS011;44860;53.020;6.738;2023-03-14T02:04:32;21.60;;;4.82;;
59074;SDS011;44860;53.020;6.738;2023-03-14T02:07:03;19.70;;;4.70;;
59074;SDS011;44860;53.020;6.738;2023-03-14T02:09:38;19.90;;;4.25;;
59074;SDS011;44860;53.020;6.738;2023-03-14T02:12:05;20.05;;;4.38;;
59074;SDS011;44860;53.020;6.738;2023-03-14T02:14:34;16.00;;;4.03;;
59074;SDS011;44860;53.020;6.738;2023-03-14T02:17:02;16.50;;;4.30;;
59074;SDS011;44860;53.020;6.738;2023-03-14T02:22:34;14.48;;;3.80;;
59074;SDS011;44860;53.020;6.738;2023-03-14T02:27:42;15.85;;;4.03;;
59074;SDS011;44860;53.020;6.738;2023-03-14T02:30:17;14.52;;;4.15;;
59074;SDS011;44860;53.020;6.738;2023-03-14T02:32:52;13.05;;;3.22;;
59074;SDS011;44860;53.020;6.738;2023-03-14T02:35:22;12.50;;;3.60;;
59074;SDS011;44860;53.020;6.738;2023-03-14T02:37:52;11.43;;;3.17;;
59074;SDS011;44860;53.020;6.738;2023-03-14T02:40:24;14.25;;;3.70;;
59074;SDS011;44860;53.020;6.738;2023-03-14T02:42:49;13.15;;;3.70;;
59074;SDS011;44860;53.020;6.738;2023-03-14T02:47:45;15.40;;;3.45;;
59074;SDS011;44860;53.020;6.738;2023-03-14T02:52:42;18.80;;;3.95;;
59074;SDS011;44860;53.020;6.738;2023-03-14T02:55:08;19.05;;;3.92;;
59074;SDS011;44860;53.020;6.738;2023-03-14T02:57:34;16.33;;;4.18;;
59074;SDS011;44860;53.020;6.738;2023-03-14T03:00:01;14.05;;;4.47;;
59074;SDS011;44860;53.020;6.738;2023-03-14T03:02:30;16.13;;;4.70;;
59074;SDS011;44860;53.020;6.738;2023-03-14T03:04:56;18.98;;;5.13;;
59074;SDS011;44860;53.020;6.738;2023-03-14T03:07:21;17.20;;;5.07;;
59074;SDS011;44860;53.020;6.738;2023-03-14T03:09:47;15.35;;;5.35;;
59074;SDS011;44860;53.020;6.738;2023-03-14T03:12:13;16.33;;;5.28;;
59074;SDS011;44860;53.020;6.738;2023-03-14T03:14:38;18.00;;;5.50;;
59074;SDS011;44860;53.020;6.738;2023-03-14T03:17:04;16.38;;;5.28;;
59074;SDS011;44860;53.020;6.738;2023-03-14T03:19:30;17.67;;;5.78;;
59074;SDS011;44860;53.020;6.738;2023-03-14T03:21:57;15.07;;;5.25;;
59074;SDS011;44860;53.020;6.738;2023-03-14T03:24:23;12.73;;;4.68;;
59074;SDS011;44860;53.020;6.738;2023-03-14T03:26:49;14.73;;;4.70;;
59074;SDS011;44860;53.020;6.738;2023-03-14T03:29:15;11.93;;;4.30;;
59074;SDS011;44860;53.020;6.738;2023-03-14T03:31:40;12.00;;;4.30;;
59074;SDS011;44860;53.020;6.738;2023-03-14T03:34:06;12.60;;;3.92;;
59074;SDS011;44860;53.020;6.738;2023-03-14T03:36:33;14.52;;;4.30;;
59074;SDS011;44860;53.020;6.738;2023-03-14T03:38:59;15.85;;;4.28;;
59074;SDS011;44860;53.020;6.738;2023-03-14T03:41:24;14.95;;;4.10;;
59074;SDS011;44860;53.020;6.738;2023-03-14T03:43:50;12.65;;;4.63;;
59074;SDS011;44860;53.020;6.738;2023-03-14T03:46:16;11.85;;;3.88;;
59074;SDS011;44860;53.020;6.738;2023-03-14T03:48:41;19.40;;;4.72;;
59074;SDS011;44860;53.020;6.738;2023-03-14T03:51:07;13.88;;;4.68;;
59074;SDS011;44860;53.020;6.738;2023-03-14T03:53:38;17.25;;;4.85;;
59074;SDS011;44860;53.020;6.738;2023-03-14T03:56:04;15.15;;;5.65;;
59074;SDS011;44860;53.020;6.738;2023-03-14T03:58:30;16.73;;;4.97;;
59074;SDS011;44860;53.020;6.738;2023-03-14T04:00:55;16.52;;;5.30;;
59074;SDS011;44860;53.020;6.738;2023-03-14T04:03:21;16.35;;;4.90;;
59074;SDS011;44860;53.020;6.738;2023-03-14T04:05:57;16.73;;;5.80;;
59074;SDS011;44860;53.020;6.738;2023-03-14T04:08:23;17.88;;;5.50;;
59074;SDS011;44860;53.020;6.738;2023-03-14T04:10:49;15.95;;;5.60;;
59074;SDS011;44860;53.020;6.738;2023-03-14T04:13:18;15.68;;;5.43;;
59074;SDS011;44860;53.020;6.738;2023-03-14T04:15:44;13.13;;;5.50;;
59074;SDS011;44860;53.020;6.738;2023-03-14T04:18:09;18.23;;;6.25;;
59074;SDS011;44860;53.020;6.738;2023-03-14T04:20:35;16.42;;;5.70;;
59074;SDS011;44860;53.020;6.738;2023-03-14T04:23:01;12.00;;;5.45;;
59074;SDS011;44860;53.020;6.738;2023-03-14T04:25:26;14.30;;;4.93;;
59074;SDS011;44860;53.020;6.738;2023-03-14T04:27:52;17.98;;;5.63;;
59074;SDS011;44860;53.020;6.738;2023-03-14T04:30:17;15.02;;;5.15;;
59074;SDS011;44860;53.020;6.738;2023-03-14T04:32:43;15.68;;;5.50;;
59074;SDS011;44860;53.020;6.738;2023-03-14T04:35:09;13.48;;;5.18;;
59074;SDS011;44860;53.020;6.738;2023-03-14T04:37:34;18.95;;;5.63;;
59074;SDS011;44860;53.020;6.738;2023-03-14T04:40:00;14.23;;;4.95;;
59074;SDS011;44860;53.020;6.738;2023-03-14T04:42:26;14.65;;;5.20;;
59074;SDS011;44860;53.020;6.738;2023-03-14T04:44:52;14.07;;;5.10;;
59074;SDS011;44860;53.020;6.738;2023-03-14T04:47:17;14.02;;;4.82;;
59074;SDS011;44860;53.020;6.738;2023-03-14T04:49:43;13.35;;;4.85;;
59074;SDS011;44860;53.020;6.738;2023-03-14T04:52:08;14.07;;;4.45;;
59074;SDS011;44860;53.020;6.738;2023-03-14T04:54:34;12.88;;;4.15;;
59074;SDS011;44860;53.020;6.738;2023-03-14T04:57:00;10.38;;;4.05;;
59074;SDS011;44860;53.020;6.738;2023-03-14T04:59:26;13.00;;;4.25;;
59074;SDS011;44860;53.020;6.738;2023-03-14T05:01:51;13.80;;;4.47;;
59074;SDS011;44860;53.020;6.738;2023-03-14T05:04:17;14.07;;;4.95;;
59074;SDS011;44860;53.020;6.738;2023-03-14T05:06:43;15.57;;;4.82;;
59074;SDS011;44860;53.020;6.738;2023-03-14T05:09:09;13.57;;;4.60;;
59074;SDS011;44860;53.020;6.738;2023-03-14T05:11:35;13.30;;;4.93;;
59074;SDS011;44860;53.020;6.738;2023-03-14T05:14:00;12.68;;;5.35;;
59074;SDS011;44860;53.020;6.738;2023-03-14T05:16:26;14.05;;;5.18;;
59074;SDS011;44860;53.020;6.738;2023-03-14T05:18:52;12.85;;;5.15;;
59074;SDS011;44860;53.020;6.738;2023-03-14T05:21:17;11.20;;;5.25;;
59074;SDS011;44860;53.020;6.738;2023-03-14T05:23:43;15.73;;;6.05;;
59074;SDS011;44860;53.020;6.738;2023-03-14T05:26:08;13.75;;;5.47;;
59074;SDS011;44860;53.020;6.738;2023-03-14T05:28:34;14.30;;;5.63;;
59074;SDS011;44860;53.020;6.738;2023-03-14T05:31:00;12.20;;;5.28;;
59074;SDS011;44860;53.020;6.738;2023-03-14T05:33:25;12.10;;;5.43;;
59074;SDS011;44860;53.020;6.738;2023-03-14T05:35:51;12.40;;;6.20;;
59074;SDS011;44860;53.020;6.738;2023-03-14T05:38:17;13.40;;;5.30;;
59074;SDS011;44860;53.020;6.738;2023-03-14T05:40:44;12.80;;;5.75;;
59074;SDS011;44860;53.020;6.738;2023-03-14T05:43:10;13.85;;;5.15;;
59074;SDS011;44860;53.020;6.738;2023-03-14T05:45:36;14.90;;;6.13;;
59074;SDS011;44860;53.020;6.738;2023-03-14T05:48:01;14.65;;;6.18;;
59074;SDS011;44860;53.020;6.738;2023-03-14T05:50:27;16.23;;;6.10;;
59074;SDS011;44860;53.020;6.738;2023-03-14T05:52:52;16.23;;;6.78;;
59074;SDS011;44860;53.020;6.738;2023-03-14T05:55:18;18.08;;;6.55;;
59074;SDS011;44860;53.020;6.738;2023-03-14T05:57:44;13.57;;;6.20;;
59074;SDS011;44860;53.020;6.738;2023-03-14T06:00:10;16.65;;;6.57;;
59074;SDS011;44860;53.020;6.738;2023-03-14T06:02:36;16.85;;;7.07;;
59074;SDS011;44860;53.020;6.738;2023-03-14T06:05:01;16.65;;;6.68;;
59074;SDS011;44860;53.020;6.738;2023-03-14T06:07:27;20.10;;;7.13;;
59074;SDS011;44860;53.020;6.738;2023-03-14T06:09:52;14.95;;;7.20;;
59074;SDS011;44860;53.020;6.738;2023-03-14T06:12:18;14.55;;;6.70;;
59074;SDS011;44860;53.020;6.738;2023-03-14T06:14:44;13.52;;;6.00;;
59074;SDS011;44860;53.020;6.738;2023-03-14T06:17:09;15.77;;;6.68;;
59074;SDS011;44860;53.020;6.738;2023-03-14T06:19:35;12.63;;;6.07;;
59074;SDS011;44860;53.020;6.738;2023-03-14T06:22:01;12.00;;;5.72;;
59074;SDS011;44860;53.020;6.738;2023-03-14T06:24:26;12.85;;;6.00;;
59074;SDS011;44860;53.020;6.738;2023-03-14T06:26:52;10.63;;;5.43;;
59074;SDS011;44860;53.020;6.738;2023-03-14T06:29:17;13.02;;;6.03;;
59074;SDS011;44860;53.020;6.738;2023-03-14T06:31:43;11.07;;;4.97;;
59074;SDS011;44860;53.020;6.738;2023-03-14T06:34:09;11.50;;;5.10;;
59074;SDS011;44860;53.020;6.738;2023-03-14T06:36:35;8.95;;;4.28;;
59074;SDS011;44860;53.020;6.738;2023-03-14T06:39:00;8.80;;;4.22;;
59074;SDS011;44860;53.020;6.738;2023-03-14T06:41:26;9.93;;;4.30;;
59074;SDS011;44860;53.020;6.738;2023-03-14T06:43:52;12.70;;;4.65;;
59074;SDS011;44860;53.020;6.738;2023-03-14T06:46:18;8.77;;;4.15;;
59074;SDS011;44860;53.020;6.738;2023-03-14T06:48:43;10.23;;;4.43;;
59074;SDS011;44860;53.020;6.738;2023-03-14T06:51:09;9.90;;;4.35;;
59074;SDS011;44860;53.020;6.738;2023-03-14T06:53:35;11.05;;;4.78;;
59074;SDS011;44860;53.020;6.738;2023-03-14T06:56:00;9.05;;;4.60;;
59074;SDS011;44860;53.020;6.738;2023-03-14T06:58:26;9.57;;;4.90;;
59074;SDS011;44860;53.020;6.738;2023-03-14T07:00:54;12.95;;;5.13;;
59074;SDS011;44860;53.020;6.738;2023-03-14T07:03:22;11.80;;;5.00;;
59074;SDS011;44860;53.020;6.738;2023-03-14T07:05:47;8.88;;;4.40;;
59074;SDS011;44860;53.020;6.738;2023-03-14T07:08:13;8.65;;;4.18;;
59074;SDS011;44860;53.020;6.738;2023-03-14T07:10:39;7.70;;;3.33;;
59074;SDS011;44860;53.020;6.738;2023-03-14T07:13:04;11.90;;;2.20;;
59074;SDS011;44860;53.020;6.738;2023-03-14T07:15:30;6.70;;;1.63;;
59074;SDS011;44860;53.020;6.738;2023-03-14T07:17:56;5.47;;;1.40;;
59074;SDS011;44860;53.020;6.738;2023-03-14T07:20:21;6.47;;;1.40;;
59074;SDS011;44860;53.020;6.738;2023-03-14T07:22:48;9.90;;;1.63;;
59074;SDS011;44860;53.020;6.738;2023-03-14T07:25:14;8.18;;;1.38;;
59074;SDS011;44860;53.020;6.738;2023-03-14T07:27:42;7.55;;;1.33;;
59074;SDS011;44860;53.020;6.738;2023-03-14T07:30:09;5.85;;;1.08;;
59074;SDS011;44860;53.020;6.738;2023-03-14T07:32:35;9.25;;;1.55;;
59074;SDS011;44860;53.020;6.738;2023-03-14T07:35:00;7.20;;;1.30;;
59074;SDS011;44860;53.020;6.738;2023-03-14T07:37:26;5.70;;;1.33;;
59074;SDS011;44860;53.020;6.738;2023-03-14T07:39:52;9.07;;;1.77;;
59074;SDS011;44860;53.020;6.738;2023-03-14T07:42:17;8.32;;;1.30;;
59074;SDS011;44860;53.020;6.738;2023-03-14T07:44:43;5.85;;;1.10;;
59074;SDS011;44860;53.020;6.738;2023-03-14T07:47:09;5.88;;;1.13;;
59074;SDS011;44860;53.020;6.738;2023-03-14T07:49:35;6.47;;;1.33;;
59074;SDS011;44860;53.020;6.738;2023-03-14T07:52:00;7.00;;;1.15;;
59074;SDS011;44860;53.020;6.738;2023-03-14T07:54:26;6.65;;;0.95;;
59074;SDS011;44860;53.020;6.738;2023-03-14T07:56:52;7.93;;;1.13;;
59074;SDS011;44860;53.020;6.738;2023-03-14T07:59:18;6.28;;;0.90;;
59074;SDS011;44860;53.020;6.738;2023-03-14T08:01:44;2.83;;;0.65;;
59074;SDS011;44860;53.020;6.738;2023-03-14T08:04:10;4.88;;;0.77;;
59074;SDS011;44860;53.020;6.738;2023-03-14T08:06:36;6.82;;;1.02;;
59074;SDS011;44860;53.020;6.738;2023-03-14T08:09:02;5.00;;;0.70;;
59074;SDS011;44860;53.020;6.738;2023-03-14T08:11:28;3.90;;;0.85;;
59074;SDS011;44860;53.020;6.738;2023-03-14T08:13:54;4.70;;;0.82;;
59074;SDS011;44860;53.020;6.738;2023-03-14T08:16:20;5.05;;;0.70;;
59074;SDS011;44860;53.020;6.738;2023-03-14T08:18:46;3.00;;;0.70;;
59074;SDS011;44860;53.020;6.738;2023-03-14T08:21:12;3.35;;;0.60;;
59074;SDS011;44860;53.020;6.738;2023-03-14T08:23:38;4.03;;;0.70;;
59074;SDS011;44860;53.020;6.738;2023-03-14T08:26:04;4.20;;;0.80;;
59074;SDS011;44860;53.020;6.738;2023-03-14T08:28:30;5.65;;;0.75;;
59074;SDS011;44860;53.020;6.738;2023-03-14T08:31:01;2.95;;;0.60;;
59074;SDS011;44860;53.020;6.738;2023-03-14T08:33:27;3.20;;;0.60;;
59074;SDS011;44860;53.020;6.738;2023-03-14T08:35:54;3.55;;;0.50;;
59074;SDS011;44860;53.020;6.738;2023-03-14T08:38:21;4.45;;;0.70;;
59074;SDS011;44860;53.020;6.738;2023-03-14T08:40:47;4.50;;;0.60;;
59074;SDS011;44860;53.020;6.738;2023-03-14T08:43:12;2.22;;;0.55;;
59074;SDS011;44860;53.020;6.738;2023-03-14T08:45:38;5.47;;;0.60;;
59074;SDS011;44860;53.020;6.738;2023-03-14T08:48:04;3.60;;;0.70;;
59074;SDS011;44860;53.020;6.738;2023-03-14T08:50:30;4.68;;;0.77;;
59074;SDS011;44860;53.020;6.738;2023-03-14T08:52:55;2.70;;;0.65;;
59074;SDS011;44860;53.020;6.738;2023-03-14T08:55:24;7.00;;;1.30;;
59074;SDS011;44860;53.020;6.738;2023-03-14T08:57:52;7.00;;;0.70;;
59074;SDS011;44860;53.020;6.738;2023-03-14T09:00:18;8.95;;;1.13;;
59074;SDS011;44860;53.020;6.738;2023-03-14T09:02:44;6.75;;;1.08;;
59074;SDS011;44860;53.020;6.738;2023-03-14T09:05:10;4.13;;;1.23;;
59074;SDS011;44860;53.020;6.738;2023-03-14T09:07:37;6.70;;;1.08;;
59074;SDS011;44860;53.020;6.738;2023-03-14T09:10:03;7.05;;;1.52;;
59074;SDS011;44860;53.020;6.738;2023-03-14T09:12:30;8.93;;;1.10;;
59074;SDS011;44860;53.020;6.738;2023-03-14T09:14:55;11.73;;;1.58;;
59074;SDS011;44860;53.020;6.738;2023-03-14T09:17:21;11.55;;;1.48;;
59074;SDS011;44860;53.020;6.738;2023-03-14T09:19:47;9.73;;;1.40;;
59074;SDS011;44860;53.020;6.738;2023-03-14T09:22:12;12.05;;;1.75;;
59074;SDS011;44860;53.020;6.738;2023-03-14T09:24:38;14.05;;;2.38;;
59074;SDS011;44860;53.020;6.738;2023-03-14T09:27:05;12.20;;;1.73;;
59074;SDS011;44860;53.020;6.738;2023-03-14T09:29:32;10.30;;;1.80;;
59074;SDS011;44860;53.020;6.738;2023-03-14T09:31:58;13.40;;;2.13;;
59074;SDS011;44860;53.020;6.738;2023-03-14T09:34:24;11.55;;;2.10;;
59074;SDS011;44860;53.020;6.738;2023-03-14T09:36:50;17.00;;;2.08;;
59074;SDS011;44860;53.020;6.738;2023-03-14T09:39:16;22.17;;;2.80;;
59074;SDS011;44860;53.020;6.738;2023-03-14T09:41:51;15.90;;;2.40;;
59074;SDS011;44860;53.020;6.738;2023-03-14T09:47:05;18.48;;;2.30;;
59074;SDS011;44860;53.020;6.738;2023-03-14T09:49:33;17.00;;;3.38;;
59074;SDS011;44860;53.020;6.738;2023-03-14T09:52:02;20.10;;;3.20;;
59074;SDS011;44860;53.020;6.738;2023-03-14T09:57:08;25.02;;;3.33;;
59074;SDS011;44860;53.020;6.738;2023-03-14T09:59:38;15.68;;;2.88;;
59074;SDS011;44860;53.020;6.738;2023-03-14T10:02:20;18.38;;;3.65;;
59074;SDS011;44860;53.020;6.738;2023-03-14T10:04:48;23.67;;;3.53;;
59074;SDS011;44860;53.020;6.738;2023-03-14T10:07:19;26.40;;;3.58;;
59074;SDS011;44860;53.020;6.738;2023-03-14T10:09:54;21.58;;;3.10;;
59074;SDS011;44860;53.020;6.738;2023-03-14T10:12:22;23.63;;;3.55;;
59074;SDS011;44860;53.020;6.738;2023-03-14T10:15:02;17.90;;;3.10;;
59074;SDS011;44860;53.020;6.738;2023-03-14T10:17:49;18.90;;;3.47;;
59074;SDS011;44860;53.020;6.738;2023-03-14T10:20:38;20.38;;;3.08;;
59074;SDS011;44860;53.020;6.738;2023-03-14T10:23:17;26.95;;;3.17;;
59074;SDS011;44860;53.020;6.738;2023-03-14T10:28:29;20.00;;;3.15;;
59074;SDS011;44860;53.020;6.738;2023-03-14T10:30:57;20.20;;;2.90;;
59074;SDS011;44860;53.020;6.738;2023-03-14T10:33:30;22.45;;;3.58;;
59074;SDS011;44860;53.020;6.738;2023-03-14T10:36:21;18.83;;;3.15;;
59074;SDS011;44860;53.020;6.738;2023-03-14T10:38:51;18.77;;;3.05;;
59074;SDS011;44860;53.020;6.738;2023-03-14T10:41:46;22.02;;;3.03;;
59074;SDS011;44860;53.020;6.738;2023-03-14T10:44:13;20.45;;;3.25;;
59074;SDS011;44860;53.020;6.738;2023-03-14T10:46:46;23.03;;;4.23;;
59074;SDS011;44860;53.020;6.738;2023-03-14T10:49:31;23.88;;;3.13;;
59074;SDS011;44860;53.020;6.738;2023-03-14T10:52:22;23.38;;;3.58;;
59074;SDS011;44860;53.020;6.738;2023-03-14T10:54:48;20.80;;;3.03;;
59074;SDS011;44860;53.020;6.738;2023-03-14T10:57:20;17.63;;;2.85;;
59074;SDS011;44860;53.020;6.738;2023-03-14T10:59:46;21.58;;;3.42;;
59074;SDS011;44860;53.020;6.738;2023-03-14T11:08:15;14.52;;;2.85;;
59074;SDS011;44860;53.020;6.738;2023-03-14T11:11:15;14.88;;;2.75;;
59074;SDS011;44860;53.020;6.738;2023-03-14T11:22:10;15.50;;;2.95;;
59074;SDS011;44860;53.020;6.738;2023-03-14T11:27:36;11.85;;;2.28;;
59074;SDS011;44860;53.020;6.738;2023-03-14T11:33:17;12.07;;;2.30;;
59074;SDS011;44860;53.020;6.738;2023-03-14T11:41:00;11.93;;;1.98;;
59074;SDS011;44860;53.020;6.738;2023-03-14T11:43:28;15.98;;;2.15;;
59074;SDS011;44860;53.020;6.738;2023-03-14T11:46:04;10.60;;;1.52;;
59074;SDS011;44860;53.020;6.738;2023-03-14T11:51:24;9.85;;;1.88;;
59074;SDS011;44860;53.020;6.738;2023-03-14T11:54:18;10.38;;;1.60;;
59074;SDS011;44860;53.020;6.738;2023-03-14T11:59:25;9.65;;;1.70;;
59074;SDS011;44860;53.020;6.738;2023-03-14T12:01:57;8.10;;;1.60;;
59074;SDS011;44860;53.020;6.738;2023-03-14T12:10:19;6.78;;;1.80;;
59074;SDS011;44860;53.020;6.738;2023-03-14T12:12:44;7.68;;;1.50;;
59074;SDS011;44860;53.020;6.738;2023-03-14T12:15:17;8.43;;;1.85;;
59074;SDS011;44860;53.020;6.738;2023-03-14T12:17:45;6.97;;;1.58;;
59074;SDS011;44860;53.020;6.738;2023-03-14T12:22:43;7.55;;;1.38;;
59074;SDS011;44860;53.020;6.738;2023-03-14T12:27:45;11.13;;;2.40;;
59074;SDS011;44860;53.020;6.738;2023-03-14T12:30:18;6.22;;;1.58;;
59074;SDS011;44860;53.020;6.738;2023-03-14T12:33:42;12.95;;;1.83;;
59074;SDS011;44860;53.020;6.738;2023-03-14T12:35:47;11.35;;;1.90;;
59074;SDS011;44860;53.020;6.738;2023-03-14T12:38:21;12.32;;;1.98;;
59074;SDS011;44860;53.020;6.738;2023-03-14T12:46:58;12.90;;;1.85;;
59074;SDS011;44860;53.020;6.738;2023-03-14T12:49:33;9.77;;;1.95;;
59074;SDS011;44860;53.020;6.738;2023-03-14T12:52:04;8.48;;;1.45;;
59074;SDS011;44860;53.020;6.738;2023-03-14T13:03:15;7.13;;;1.65;;
59074;SDS011;44860;53.020;6.738;2023-03-14T13:05:54;13.73;;;2.47;;
59074;SDS011;44860;53.020;6.738;2023-03-14T13:11:21;9.13;;;2.00;;
59074;SDS011;44860;53.020;6.738;2023-03-14T13:13:55;10.52;;;1.83;;
59074;SDS011;44860;53.020;6.738;2023-03-14T13:16:22;12.15;;;2.28;;
59074;SDS011;44860;53.020;6.738;2023-03-14T13:18:49;9.55;;;1.88;;
59074;SDS011;44860;53.020;6.738;2023-03-14T13:21:24;9.02;;;2.00;;
59074;SDS011;44860;53.020;6.738;2023-03-14T13:26:25;13.07;;;2.97;;
59074;SDS011;44860;53.020;6.738;2023-03-14T13:29:08;12.30;;;2.22;;
59074;SDS011;44860;53.020;6.738;2023-03-14T13:31:35;11.20;;;2.20;;
59074;SDS011;44860;53.020;6.738;2023-03-14T13:34:01;14.32;;;2.33;;
59074;SDS011;44860;53.020;6.738;2023-03-14T13:36:31;10.98;;;2.38;;
59074;SDS011;44860;53.020;6.738;2023-03-14T13:38:59;12.45;;;2.30;;
59074;SDS011;44860;53.020;6.738;2023-03-14T13:41:26;11.02;;;2.15;;
59074;SDS011;44860;53.020;6.738;2023-03-14T13:43:56;10.68;;;2.20;;
59074;SDS011;44860;53.020;6.738;2023-03-14T13:46:28;8.65;;;1.75;;
59074;SDS011;44860;53.020;6.738;2023-03-14T13:48:55;11.82;;;1.95;;
59074;SDS011;44860;53.020;6.738;2023-03-14T13:51:23;11.02;;;1.67;;
59074;SDS011;44860;53.020;6.738;2023-03-14T13:53:54;6.20;;;1.30;;
59074;SDS011;44860;53.020;6.738;2023-03-14T13:56:24;8.07;;;1.77;;
59074;SDS011;44860;53.020;6.738;2023-03-14T13:58:52;6.60;;;1.55;;
59074;SDS011;44860;53.020;6.738;2023-03-14T14:01:28;8.95;;;1.50;;
59074;SDS011;44860;53.020;6.738;2023-03-14T14:04:02;8.80;;;1.48;;
59074;SDS011;44860;53.020;6.738;2023-03-14T14:06:34;7.93;;;1.48;;
59074;SDS011;44860;53.020;6.738;2023-03-14T14:09:14;9.93;;;2.00;;
59074;SDS011;44860;53.020;6.738;2023-03-14T14:12:05;8.65;;;1.63;;
59074;SDS011;44860;53.020;6.738;2023-03-14T14:14:35;10.52;;;1.77;;
59074;SDS011;44860;53.020;6.738;2023-03-14T14:17:05;9.63;;;1.75;;
59074;SDS011;44860;53.020;6.738;2023-03-14T14:19:34;8.10;;;1.50;;
59074;SDS011;44860;53.020;6.738;2023-03-14T14:22:02;11.18;;;2.47;;
59074;SDS011;44860;53.020;6.738;2023-03-14T14:24:29;9.00;;;1.80;;
59074;SDS011;44860;53.020;6.738;2023-03-14T14:27:00;10.57;;;1.98;;
59074;SDS011;44860;53.020;6.738;2023-03-14T14:29:33;9.20;;;1.58;;
59074;SDS011;44860;53.020;6.738;2023-03-14T14:32:17;10.82;;;2.13;;
59074;SDS011;44860;53.020;6.738;2023-03-14T14:34:44;13.07;;;1.88;;
59074;SDS011;44860;53.020;6.738;2023-03-14T14:37:24;7.13;;;1.83;;
59074;SDS011;44860;53.020;6.738;2023-03-14T14:39:54;7.50;;;1.63;;
59074;SDS011;44860;53.020;6.738;2023-03-14T14:42:24;7.70;;;1.50;;
59074;SDS011;44860;53.020;6.738;2023-03-14T14:44:52;5.78;;;1.50;;
59074;SDS011;44860;53.020;6.738;2023-03-14T14:47:19;10.02;;;2.13;;
59074;SDS011;44860;53.020;6.738;2023-03-14T14:49:47;5.35;;;1.27;;
59074;SDS011;44860;53.020;6.738;2023-03-14T14:52:15;8.13;;;1.73;;
59074;SDS011;44860;53.020;6.738;2023-03-14T14:54:44;8.20;;;1.40;;
59074;SDS011;44860;53.020;6.738;2023-03-14T14:57:19;8.48;;;2.30;;
59074;SDS011;44860;53.020;6.738;2023-03-14T14:59:44;8.50;;;1.60;;
59074;SDS011;44860;53.020;6.738;2023-03-14T15:02:28;8.13;;;1.83;;
59074;SDS011;44860;53.020;6.738;2023-03-14T15:04:54;9.70;;;2.05;;
59074;SDS011;44860;53.020;6.738;2023-03-14T15:07:19;9.80;;;1.73;;
59074;SDS011;44860;53.020;6.738;2023-03-14T15:09:45;11.10;;;2.00;;
59074;SDS011;44860;53.020;6.738;2023-03-14T15:12:11;13.05;;;2.20;;
59074;SDS011;44860;53.020;6.738;2023-03-14T15:14:36;13.48;;;2.05;;
59074;SDS011;44860;53.020;6.738;2023-03-14T15:17:02;13.15;;;2.03;;
59074;SDS011;44860;53.020;6.738;2023-03-14T15:19:28;12.05;;;2.05;;
59074;SDS011;44860;53.020;6.738;2023-03-14T15:21:57;12.20;;;1.90;;
59074;SDS011;44860;53.020;6.738;2023-03-14T15:24:23;10.45;;;2.15;;
59074;SDS011;44860;53.020;6.738;2023-03-14T15:26:49;13.52;;;2.00;;
59074;SDS011;44860;53.020;6.738;2023-03-14T15:29:15;10.15;;;2.13;;
59074;SDS011;44860;53.020;6.738;2023-03-14T15:31:41;9.18;;;2.33;;
59074;SDS011;44860;53.020;6.738;2023-03-14T15:34:09;8.48;;;1.60;;
59074;SDS011;44860;53.020;6.738;2023-03-14T15:36:35;12.63;;;1.60;;
59074;SDS011;44860;53.020;6.738;2023-03-14T15:39:02;7.75;;;1.45;;
59074;SDS011;44860;53.020;6.738;2023-03-14T15:41:29;8.90;;;2.70;;
59074;SDS011;44860;53.020;6.738;2023-03-14T15:43:55;7.65;;;1.48;;
59074;SDS011;44860;53.020;6.738;2023-03-14T15:46:20;8.73;;;1.92;;
59074;SDS011;44860;53.020;6.738;2023-03-14T15:48:47;9.20;;;1.63;;
59074;SDS011;44860;53.020;6.738;2023-03-14T15:51:13;6.35;;;1.55;;
59074;SDS011;44860;53.020;6.738;2023-03-14T15:53:39;8.52;;;1.48;;
59074;SDS011;44860;53.020;6.738;2023-03-14T15:56:06;7.85;;;1.35;;
59074;SDS011;44860;53.020;6.738;2023-03-14T15:58:35;10.60;;;1.80;;
59074;SDS011;44860;53.020;6.738;2023-03-14T16:01:01;10.23;;;1.73;;
59074;SDS011;44860;53.020;6.738;2023-03-14T16:03:30;12.50;;;2.53;;
59074;SDS011;44860;53.020;6.738;2023-03-14T16:05:56;8.80;;;1.58;;
59074;SDS011;44860;53.020;6.738;2023-03-14T16:08:22;12.98;;;2.45;;
59074;SDS011;44860;53.020;6.738;2023-03-14T16:10:50;10.77;;;2.20;;
59074;SDS011;44860;53.020;6.738;2023-03-14T16:13:17;7.55;;;1.60;;